Time;durP1;ratioP1;P1;durP2;ratioP2;P2;SDS_P1;SDS_P2;PMS_P1;PMS_P2;Temp;Humidity;BMP_temperature;BMP_pressure;BME280_temperature;BME280_humidity;BME280_pressure;Samples;Min_cycle;Max_cycle;Signal;HPM_P1;HPM_P2
2023/07/08 00:00:26;;;;;;;7.20;3.10;;;;;;;;;;5132360;27;20284;-77
2023/07/08 00:02:53;;;;;;;5.50;2.88;;;;;;;;;;5132074;27;20224;-77
2023/07/08 00:05:22;;;;;;;5.97;3.13;;;;;;;;;;5132483;27;20201;-76
2023/07/08 00:07:49;;;;;;;4.57;3.25;;;;;;;;;;5131688;28;20239;-77
2023/07/08 00:10:18;;;;;;;4.50;3.10;;;;;;;;;;5131588;27;20292;-77
2023/07/08 00:12:46;;;;;;;6.85;3.30;;;;;;;;;;5132046;28;20254;-77
2023/07/08 00:15:13;;;;;;;5.45;3.20;;;;;;;;;;5133616;27;20261;-76
2023/07/08 00:17:41;;;;;;;7.40;3.08;;;;;;;;;;5135085;27;20231;-76
2023/07/08 00:20:17;;;;;;;5.13;2.78;;;;;;;;;;5132245;27;20708;-76
2023/07/08 00:22:46;;;;;;;4.88;2.80;;;;;;;;;;5152400;27;20196;-78
2023/07/08 00:25:14;;;;;;;5.07;2.58;;;;;;;;;;5140221;27;20245;-77
2023/07/08 00:27:43;;;;;;;5.03;2.70;;;;;;;;;;5131950;28;20734;-76
2023/07/08 00:30:19;;;;;;;5.45;2.67;;;;;;;;;;5129338;28;20257;-77
2023/07/08 00:32:46;;;;;;;5.20;2.50;;;;;;;;;;5130924;28;20193;-77
2023/07/08 00:35:13;;;;;;;4.57;2.60;;;;;;;;;;5132098;28;20280;-76
2023/07/08 00:37:40;;;;;;;4.22;2.55;;;;;;;;;;5131948;27;20614;-77
2023/07/08 00:40:14;;;;;;;4.75;2.60;;;;;;;;;;5131962;27;20227;-76
2023/07/08 00:42:43;;;;;;;6.32;2.92;;;;;;;;;;5131892;27;20235;-77
2023/07/08 00:45:17;;;;;;;5.45;2.63;;;;;;;;;;5131534;28;20284;-77
2023/07/08 00:47:44;;;;;;;4.30;2.60;;;;;;;;;;5132027;27;20231;-76
2023/07/08 00:50:12;;;;;;;6.13;2.78;;;;;;;;;;5132277;27;20240;-77
2023/07/08 00:52:41;;;;;;;4.63;2.58;;;;;;;;;;5131441;28;20556;-77
2023/07/08 00:55:11;;;;;;;5.63;2.45;;;;;;;;;;5131567;27;20208;-76
2023/07/08 00:57:40;;;;;;;5.95;2.85;;;;;;;;;;5131486;28;20201;-76
2023/07/08 01:00:12;;;;;;;4.75;2.55;;;;;;;;;;5132209;27;20189;-77
2023/07/08 01:02:42;;;;;;;5.43;3.00;;;;;;;;;;5131646;28;20194;-77
2023/07/08 01:05:11;;;;;;;5.25;3.30;;;;;;;;;;5131825;28;20204;-77
2023/07/08 01:07:40;;;;;;;6.20;3.03;;;;;;;;;;5131492;28;20225;-77
2023/07/08 01:10:12;;;;;;;4.75;3.33;;;;;;;;;;5131690;28;20363;-75
2023/07/08 01:12:41;;;;;;;8.25;3.20;;;;;;;;;;5131934;27;20688;-77
2023/07/08 01:15:10;;;;;;;6.28;3.03;;;;;;;;;;5131523;28;20228;-77
2023/07/08 01:17:37;;;;;;;5.63;2.78;;;;;;;;;;5131539;28;20561;-76
2023/07/08 01:20:06;;;;;;;4.40;2.50;;;;;;;;;;5131523;28;20284;-76
2023/07/08 01:22:36;;;;;;;4.68;2.92;;;;;;;;;;5131809;27;20224;-76
2023/07/08 01:25:03;;;;;;;4.38;2.90;;;;;;;;;;5135146;27;20236;-76
2023/07/08 01:27:32;;;;;;;3.38;2.58;;;;;;;;;;5134840;27;20196;-77
2023/07/08 01:29:59;;;;;;;4.28;2.80;;;;;;;;;;5135231;27;20196;-75
2023/07/08 01:32:27;;;;;;;4.75;2.55;;;;;;;;;;5135319;27;20203;-77
2023/07/08 01:35:00;;;;;;;6.22;2.63;;;;;;;;;;5135133;27;20295;-76
2023/07/08 01:37:30;;;;;;;4.95;2.90;;;;;;;;;;5134437;27;20234;-76
2023/07/08 01:39:59;;;;;;;6.18;2.72;;;;;;;;;;5134938;27;20269;-76
2023/07/08 01:42:26;;;;;;;4.38;2.40;;;;;;;;;;5134961;27;20665;-77
2023/07/08 01:44:53;;;;;;;5.38;2.25;;;;;;;;;;5134979;27;20288;-76
2023/07/08 01:47:22;;;;;;;4.43;2.40;;;;;;;;;;5134936;27;20284;-76
2023/07/08 01:49:49;;;;;;;3.38;2.17;;;;;;;;;;5134622;27;20307;-77
2023/07/08 01:52:17;;;;;;;4.60;2.45;;;;;;;;;;5134315;27;20208;-77
2023/07/08 01:54:44;;;;;;;2.90;2.22;;;;;;;;;;5134872;27;20227;-76
2023/07/08 01:57:13;;;;;;;5.35;2.40;;;;;;;;;;5134591;27;20284;-76
2023/07/08 01:59:40;;;;;;;3.72;2.38;;;;;;;;;;5128457;27;20280;-76
2023/07/08 02:02:07;;;;;;;4.13;2.30;;;;;;;;;;5122708;27;20300;-77
2023/07/08 02:04:34;;;;;;;3.40;2.45;;;;;;;;;;5114008;28;20288;-75
2023/07/08 02:07:02;;;;;;;5.30;2.70;;;;;;;;;;5113907;28;20202;-76
2023/07/08 02:09:29;;;;;;;5.82;2.65;;;;;;;;;;5113842;28;20257;-76
2023/07/08 02:11:56;;;;;;;3.97;2.05;;;;;;;;;;5113896;28;20190;-77
2023/07/08 02:14:26;;;;;;;3.47;2.50;;;;;;;;;;5113714;28;20280;-76
2023/07/08 02:16:53;;;;;;;4.15;2.50;;;;;;;;;;5132025;27;20200;-77
2023/07/08 02:19:22;;;;;;;4.00;2.25;;;;;;;;;;5133885;27;20280;-77
2023/07/08 02:21:49;;;;;;;5.63;2.50;;;;;;;;;;5134359;27;20251;-76
2023/07/08 02:24:17;;;;;;;5.75;2.38;;;;;;;;;;5134334;27;20279;-77
2023/07/08 02:26:47;;;;;;;4.15;2.60;;;;;;;;;;5134135;27;20204;-76
2023/07/08 02:29:14;;;;;;;4.70;2.60;;;;;;;;;;5134114;27;20232;-76
2023/07/08 02:31:43;;;;;;;4.63;2.47;;;;;;;;;;5134159;27;20204;-77
2023/07/08 02:34:10;;;;;;;3.72;2.55;;;;;;;;;;5133242;27;20246;-77
2023/07/08 02:36:38;;;;;;;5.03;2.30;;;;;;;;;;5134154;27;20199;-76
2023/07/08 02:39:06;;;;;;;4.93;2.60;;;;;;;;;;5133949;27;20203;-76
2023/07/08 02:41:33;;;;;;;3.13;2.60;;;;;;;;;;5133849;27;20220;-77
2023/07/08 02:44:00;;;;;;;7.35;2.80;;;;;;;;;;5134154;27;20626;-77
2023/07/08 02:46:27;;;;;;;4.22;2.70;;;;;;;;;;5133720;27;20281;-77
2023/07/08 02:48:56;;;;;;;5.30;2.60;;;;;;;;;;5133603;27;20313;-77
2023/07/08 02:51:23;;;;;;;4.00;2.65;;;;;;;;;;5133244;27;20328;-76
2023/07/08 02:53:51;;;;;;;4.22;2.30;;;;;;;;;;5133707;27;20288;-77
2023/07/08 02:56:18;;;;;;;6.03;2.72;;;;;;;;;;5133391;27;20217;-75
2023/07/08 02:58:45;;;;;;;4.47;2.80;;;;;;;;;;5133630;27;20231;-76
2023/07/08 03:01:17;;;;;;;4.75;2.42;;;;;;;;;;5133428;27;20280;-76
2023/07/08 03:03:44;;;;;;;4.50;2.55;;;;;;;;;;5133366;27;20193;-77
2023/07/08 03:06:13;;;;;;;4.40;2.70;;;;;;;;;;5133512;27;20193;-76
2023/07/08 03:08:40;;;;;;;3.55;2.75;;;;;;;;;;5132877;27;20229;-76
2023/07/08 03:11:09;;;;;;;4.93;3.03;;;;;;;;;;5133604;27;20197;-77
2023/07/08 03:13:37;;;;;;;4.20;2.45;;;;;;;;;;5133274;27;20196;-76
2023/07/08 03:16:12;;;;;;;4.90;2.88;;;;;;;;;;5132988;27;20193;-76
2023/07/08 03:18:45;;;;;;;5.25;2.80;;;;;;;;;;5132978;27;20192;-77
2023/07/08 03:21:15;;;;;;;3.83;2.65;;;;;;;;;;5133130;27;20197;-76
2023/07/08 03:23:42;;;;;;;4.80;2.70;;;;;;;;;;5133469;27;20771;-77
2023/07/08 03:26:14;;;;;;;6.22;3.22;;;;;;;;;;5133134;27;20224;-77
2023/07/08 03:28:41;;;;;;;4.72;2.90;;;;;;;;;;5132595;27;20228;-76
2023/07/08 03:31:10;;;;;;;5.00;2.88;;;;;;;;;;5132838;27;20296;-77
2023/07/08 03:33:37;;;;;;;6.32;3.33;;;;;;;;;;5132542;27;20201;-77
2023/07/08 03:36:04;;;;;;;4.57;2.97;;;;;;;;;;5132553;27;20201;-77
2023/07/08 03:38:33;;;;;;;3.92;3.00;;;;;;;;;;5132793;27;20205;-76
2023/07/08 03:41:00;;;;;;;5.93;3.10;;;;;;;;;;5133096;27;20288;-76
2023/07/08 03:43:27;;;;;;;3.72;3.10;;;;;;;;;;5132756;27;20197;-77
2023/07/08 03:45:54;;;;;;;6.57;2.85;;;;;;;;;;5132045;27;20295;-76
2023/07/08 03:48:21;;;;;;;3.60;2.70;;;;;;;;;;5132142;27;20288;-76
2023/07/08 03:50:49;;;;;;;7.72;3.00;;;;;;;;;;5132388;27;20260;-76
2023/07/08 03:53:16;;;;;;;5.93;3.05;;;;;;;;;;5132681;27;20280;-74
2023/07/08 03:55:45;;;;;;;5.63;3.25;;;;;;;;;;5132491;27;20284;-76
2023/07/08 03:58:12;;;;;;;6.30;3.17;;;;;;;;;;5132762;27;20279;-76
2023/07/08 04:00:39;;;;;;;4.63;3.20;;;;;;;;;;5131993;27;20284;-76
2023/07/08 04:03:06;;;;;;;7.20;3.25;;;;;;;;;;5132425;27;20669;-76
2023/07/08 04:05:33;;;;;;;3.67;3.10;;;;;;;;;;5132482;27;20650;-77
2023/07/08 04:08:01;;;;;;;3.83;3.00;;;;;;;;;;5132046;27;20285;-76
2023/07/08 04:10:28;;;;;;;7.05;3.10;;;;;;;;;;5132164;28;20624;-76
2023/07/08 04:12:56;;;;;;;7.03;3.15;;;;;;;;;;5126545;27;20290;-77
2023/07/08 04:15:25;;;;;;;6.22;3.38;;;;;;;;;;5116743;28;20633;-77
2023/07/08 04:17:55;;;;;;;4.40;3.00;;;;;;;;;;5132362;27;20622;-76
2023/07/08 04:20:23;;;;;;;6.25;3.30;;;;;;;;;;5132326;27;20258;-77
2023/07/08 04:22:50;;;;;;;4.78;3.30;;;;;;;;;;5132035;28;20280;-77
2023/07/08 04:25:17;;;;;;;5.85;2.97;;;;;;;;;;5131272;28;20280;-77
2023/07/08 04:27:44;;;;;;;4.47;3.08;;;;;;;;;;5131660;28;20228;-77
2023/07/08 04:30:19;;;;;;;5.35;3.00;;;;;;;;;;5131742;28;20780;-78
2023/07/08 04:32:46;;;;;;;4.85;3.20;;;;;;;;;;5131820;28;20188;-77
2023/07/08 04:35:14;;;;;;;4.72;3.40;;;;;;;;;;5132153;28;20195;-77
2023/07/08 04:37:41;;;;;;;5.03;3.30;;;;;;;;;;5131765;28;20236;-77
2023/07/08 04:40:14;;;;;;;6.40;3.60;;;;;;;;;;5131586;27;20232;-77
2023/07/08 04:42:41;;;;;;;5.30;3.17;;;;;;;;;;5132061;27;20201;-77
2023/07/08 04:45:09;;;;;;;6.50;3.25;;;;;;;;;;5131529;27;20624;-77
2023/07/08 04:47:38;;;;;;;5.00;3.10;;;;;;;;;;5131938;28;20308;-76
2023/07/08 04:50:05;;;;;;;5.72;3.70;;;;;;;;;;5128556;28;20782;-77
2023/07/08 04:52:32;;;;;;;5.82;3.38;;;;;;;;;;5111146;28;20685;-77
2023/07/08 04:55:00;;;;;;;5.35;3.20;;;;;;;;;;5111444;28;20221;-77
2023/07/08 04:57:27;;;;;;;3.90;3.20;;;;;;;;;;5113476;28;20289;-76
2023/07/08 04:59:54;;;;;;;5.80;3.60;;;;;;;;;;5114808;28;20689;-77
2023/07/08 05:02:21;;;;;;;8.85;3.72;;;;;;;;;;5120081;27;20760;-76
2023/07/08 05:04:50;;;;;;;6.65;3.65;;;;;;;;;;5135506;27;20200;-77
2023/07/08 05:07:17;;;;;;;7.63;3.95;;;;;;;;;;5135977;27;20620;-77
2023/07/08 05:09:44;;;;;;;5.47;3.67;;;;;;;;;;5135513;27;20256;-77
2023/07/08 05:12:11;;;;;;;4.80;3.53;;;;;;;;;;5135739;27;20627;-77
2023/07/08 05:14:38;;;;;;;6.35;3.60;;;;;;;;;;5134829;27;20894;-77
2023/07/08 05:17:06;;;;;;;5.28;3.58;;;;;;;;;;5135780;27;20275;-76
2023/07/08 05:19:33;;;;;;;5.75;3.67;;;;;;;;;;5135352;27;20813;-77
2023/07/08 05:22:02;;;;;;;6.60;3.75;;;;;;;;;;5135018;27;20213;-77
2023/07/08 05:24:29;;;;;;;5.38;3.95;;;;;;;;;;5135285;27;20204;-77
2023/07/08 05:26:56;;;;;;;6.57;3.97;;;;;;;;;;5135392;27;20280;-75
2023/07/08 05:29:23;;;;;;;6.10;4.10;;;;;;;;;;5134917;27;20252;-76
2023/07/08 05:31:50;;;;;;;5.88;3.92;;;;;;;;;;5135128;27;20244;-77
2023/07/08 05:34:18;;;;;;;6.35;4.25;;;;;;;;;;5134805;27;20626;-77
2023/07/08 05:36:45;;;;;;;5.95;4.55;;;;;;;;;;5135087;27;20231;-77
2023/07/08 05:39:13;;;;;;;5.05;4.30;;;;;;;;;;5135195;27;20223;-77
2023/07/08 05:41:40;;;;;;;6.82;4.43;;;;;;;;;;5135035;27;20276;-76
2023/07/08 05:44:08;;;;;;;5.80;4.00;;;;;;;;;;5134448;27;20300;-76
2023/07/08 05:46:35;;;;;;;6.53;4.57;;;;;;;;;;5135007;27;20280;-75
2023/07/08 05:49:02;;;;;;;6.40;4.93;;;;;;;;;;5134728;27;20281;-77
2023/07/08 05:51:29;;;;;;;7.65;4.90;;;;;;;;;;5134467;27;20259;-77
2023/07/08 05:53:56;;;;;;;6.43;4.85;;;;;;;;;;5134830;27;20193;-76
2023/07/08 05:56:25;;;;;;;8.23;4.95;;;;;;;;;;5134916;27;20292;-76
2023/07/08 05:58:52;;;;;;;6.72;4.72;;;;;;;;;;5134497;27;20324;-77
2023/07/08 06:01:19;;;;;;;9.20;4.82;;;;;;;;;;5135149;27;20284;-77
2023/07/08 06:03:46;;;;;;;6.15;4.50;;;;;;;;;;5134367;27;20291;-76
2023/07/08 06:06:13;;;;;;;6.82;4.78;;;;;;;;;;5134674;27;20235;-76
2023/07/08 06:08:41;;;;;;;7.13;4.90;;;;;;;;;;5133779;27;20288;-76
2023/07/08 06:11:08;;;;;;;7.22;4.72;;;;;;;;;;5134350;27;20324;-77
2023/07/08 06:13:37;;;;;;;6.82;4.63;;;;;;;;;;5134215;27;20243;-77
2023/07/08 06:16:04;;;;;;;7.53;4.88;;;;;;;;;;5133936;27;20746;-77
2023/07/08 06:18:31;;;;;;;7.43;5.18;;;;;;;;;;5134500;27;20288;-76
2023/07/08 06:20:59;;;;;;;6.13;4.80;;;;;;;;;;5134054;27;20296;-76
2023/07/08 06:23:26;;;;;;;7.07;4.97;;;;;;;;;;5134282;27;20272;-77
2023/07/08 06:25:53;;;;;;;9.82;5.32;;;;;;;;;;5133651;27;20193;-77
2023/07/08 06:28:21;;;;;;;6.88;5.22;;;;;;;;;;5133756;27;20740;-77
2023/07/08 06:30:50;;;;;;;7.60;5.20;;;;;;;;;;5133801;27;20761;-76
2023/07/08 06:33:17;;;;;;;7.35;4.88;;;;;;;;;;5133703;27;20280;-76
2023/07/08 06:35:45;;;;;;;6.35;4.85;;;;;;;;;;5133942;27;20224;-77
2023/07/08 06:38:12;;;;;;;6.20;4.65;;;;;;;;;;5134367;27;20610;-77
2023/07/08 06:40:39;;;;;;;7.20;5.20;;;;;;;;;;5133307;27;20780;-77
2023/07/08 06:43:07;;;;;;;6.68;4.72;;;;;;;;;;5134108;27;20193;-76
2023/07/08 06:45:34;;;;;;;9.90;4.82;;;;;;;;;;5133730;27;20283;-77
2023/07/08 06:48:02;;;;;;;5.70;4.95;;;;;;;;;;5133722;27;20276;-78
2023/07/08 06:50:29;;;;;;;9.48;5.10;;;;;;;;;;5133472;27;20327;-76
2023/07/08 06:52:57;;;;;;;6.88;5.10;;;;;;;;;;5133292;27;20236;-76
2023/07/08 06:55:24;;;;;;;8.30;4.95;;;;;;;;;;5132908;27;20291;-77
2023/07/08 06:57:51;;;;;;;6.32;4.85;;;;;;;;;;5133340;27;20280;-77
2023/07/08 07:00:19;;;;;;;7.80;4.80;;;;;;;;;;5133408;27;20189;-76
2023/07/08 07:02:46;;;;;;;10.25;5.75;;;;;;;;;;5133309;27;20287;-77
2023/07/08 07:05:14;;;;;;;8.07;5.38;;;;;;;;;;5133497;27;20302;-77
2023/07/08 07:07:42;;;;;;;6.32;4.75;;;;;;;;;;5131315;27;20307;-77
2023/07/08 07:10:09;;;;;;;6.43;5.40;;;;;;;;;;5132891;27;20670;-77
2023/07/08 07:12:36;;;;;;;7.82;4.95;;;;;;;;;;5133161;27;20242;-76
2023/07/08 07:15:04;;;;;;;6.13;5.22;;;;;;;;;;5125984;27;20229;-76
2023/07/08 07:17:32;;;;;;;6.10;5.13;;;;;;;;;;5115460;27;20201;-75
2023/07/08 07:19:59;;;;;;;5.45;4.95;;;;;;;;;;5109333;28;20237;-76
2023/07/08 07:22:28;;;;;;;6.30;4.65;;;;;;;;;;4775454;27;10000775;-76
2023/07/08 07:24:55;;;;;;;6.40;4.32;;;;;;;;;;5126554;27;20194;-76
2023/07/08 07:27:22;;;;;;;8.02;4.32;;;;;;;;;;5118293;27;20237;-77
2023/07/08 07:29:51;;;;;;;6.63;4.18;;;;;;;;;;5117803;27;20317;-76
2023/07/08 07:32:19;;;;;;;5.53;4.05;;;;;;;;;;5131603;27;20254;-77
2023/07/08 07:34:47;;;;;;;8.20;5.45;;;;;;;;;;5132503;27;20229;-76
2023/07/08 07:37:16;;;;;;;8.65;5.57;;;;;;;;;;5132724;27;20580;-77
2023/07/08 07:39:44;;;;;;;8.18;5.90;;;;;;;;;;5132538;27;20300;-76
2023/07/08 07:42:12;;;;;;;9.70;6.30;;;;;;;;;;5132797;27;20284;-77
2023/07/08 07:44:40;;;;;;;10.45;5.70;;;;;;;;;;5132722;27;20242;-78
2023/07/08 07:47:08;;;;;;;7.80;4.97;;;;;;;;;;5132697;27;20197;-77
2023/07/08 07:49:35;;;;;;;7.47;4.95;;;;;;;;;;5132353;27;20235;-78
2023/07/08 07:52:02;;;;;;;7.53;4.60;;;;;;;;;;5131956;27;20750;-77
2023/07/08 07:54:29;;;;;;;6.90;4.90;;;;;;;;;;5132198;27;20304;-77
2023/07/08 07:56:58;;;;;;;7.70;4.82;;;;;;;;;;5132589;27;20204;-77
2023/07/08 07:59:25;;;;;;;7.03;4.78;;;;;;;;;;5132718;27;20288;-77
2023/07/08 08:01:52;;;;;;;9.77;5.00;;;;;;;;;;5132672;27;20673;-77
2023/07/08 08:04:19;;;;;;;7.25;4.70;;;;;;;;;;5132367;27;20274;-78
2023/07/08 08:06:47;;;;;;;7.78;5.50;;;;;;;;;;5131548;27;20196;-77
2023/07/08 08:09:14;;;;;;;7.85;5.03;;;;;;;;;;5131961;27;20197;-78
2023/07/08 08:11:41;;;;;;;6.80;5.07;;;;;;;;;;5132337;27;20236;-76
2023/07/08 08:14:10;;;;;;;6.45;5.03;;;;;;;;;;5131369;28;20288;-77
2023/07/08 08:16:37;;;;;;;7.07;4.78;;;;;;;;;;5131542;28;20730;-76
2023/07/08 08:19:04;;;;;;;6.97;5.32;;;;;;;;;;5130882;28;20225;-77
2023/07/08 08:21:32;;;;;;;10.32;4.90;;;;;;;;;;5131060;27;20289;-78
2023/07/08 08:24:00;;;;;;;8.48;5.18;;;;;;;;;;5130475;28;20199;-78
2023/07/08 08:26:27;;;;;;;5.97;4.85;;;;;;;;;;5130012;28;20197;-78
2023/07/08 08:28:54;;;;;;;9.05;5.28;;;;;;;;;;5131722;27;20236;-78
2023/07/08 08:31:23;;;;;;;7.07;5.00;;;;;;;;;;5130805;27;20752;-77
2023/07/08 08:33:50;;;;;;;8.00;5.00;;;;;;;;;;5138679;27;20201;-80
2023/07/08 08:36:17;;;;;;;7.10;4.95;;;;;;;;;;5141201;27;20276;-77
2023/07/08 08:38:44;;;;;;;6.90;4.63;;;;;;;;;;5146585;27;20197;-77
2023/07/08 08:41:14;;;;;;;8.93;5.95;;;;;;;;;;5148573;27;20227;-77
2023/07/08 08:43:43;;;;;;;6.60;5.00;;;;;;;;;;5138976;27;20685;-77
2023/07/08 08:46:11;;;;;;;6.65;5.10;;;;;;;;;;5152118;27;20286;-78
2023/07/08 08:48:44;;;;;;;6.28;4.68;;;;;;;;;;5144655;27;20191;-77
2023/07/08 08:51:14;;;;;;;8.95;4.65;;;;;;;;;;5142751;27;20325;-78
2023/07/08 08:53:41;;;;;;;6.75;4.90;;;;;;;;;;5152493;27;20287;-77
2023/07/08 08:56:15;;;;;;;7.40;5.45;;;;;;;;;;5138252;27;20220;-78
2023/07/08 08:58:45;;;;;;;8.75;5.50;;;;;;;;;;5151966;27;20677;-76
2023/07/08 09:01:13;;;;;;;13.38;5.85;;;;;;;;;;5139080;27;20660;-77
2023/07/08 09:03:44;;;;;;;7.82;5.30;;;;;;;;;;5148987;27;20655;-77
2023/07/08 09:06:13;;;;;;;10.35;5.53;;;;;;;;;;5135576;27;20280;-77
2023/07/08 09:08:41;;;;;;;9.60;5.40;;;;;;;;;;5135928;27;20219;-77
2023/07/08 09:11:13;;;;;;;7.55;5.07;;;;;;;;;;5135600;27;20228;-78
2023/07/08 09:13:41;;;;;;;9.27;4.80;;;;;;;;;;5136004;27;20225;-78
2023/07/08 09:16:11;;;;;;;6.68;4.65;;;;;;;;;;5135713;27;20203;-77
2023/07/08 09:18:45;;;;;;;6.50;4.82;;;;;;;;;;5137995;27;20288;-79
2023/07/08 09:21:20;;;;;;;7.57;4.95;;;;;;;;;;5149105;27;20299;-78
2023/07/08 09:23:49;;;;;;;7.03;4.78;;;;;;;;;;5136384;27;20203;-78
2023/07/08 09:26:19;;;;;;;5.85;4.30;;;;;;;;;;5151968;27;20381;-77
2023/07/08 09:28:46;;;;;;;4.88;3.70;;;;;;;;;;5140748;27;20736;-76
2023/07/08 09:31:22;;;;;;;5.15;3.88;;;;;;;;;;5146443;27;20220;-78
2023/07/08 09:33:52;;;;;;;3.05;2.75;;;;;;;;;;5148534;27;20594;-78
2023/07/08 09:36:23;;;;;;;4.85;3.20;;;;;;;;;;5135696;27;20286;-78
2023/07/08 09:38:51;;;;;;;3.88;3.40;;;;;;;;;;5150971;27;20200;-79
2023/07/08 09:41:30;;;;;;;3.97;3.50;;;;;;;;;;5137834;27;20778;-79
2023/07/08 09:44:04;;;;;;;4.28;3.40;;;;;;;;;;5145939;27;20192;-78
2023/07/08 09:46:36;;;;;;;5.80;3.50;;;;;;;;;;5147575;27;20203;-79
2023/07/08 09:49:11;;;;;;;3.60;3.30;;;;;;;;;;5138144;27;20193;-79
2023/07/08 09:51:39;;;;;;;4.03;3.38;;;;;;;;;;5145907;27;20300;-78
2023/07/08 09:54:07;;;;;;;4.60;3.10;;;;;;;;;;5147601;27;20200;-78
2023/07/08 09:56:34;;;;;;;4.35;3.03;;;;;;;;;;5138400;27;20193;-78
2023/07/08 09:59:03;;;;;;;3.47;2.90;;;;;;;;;;5151739;27;20273;-79
2023/07/08 10:01:30;;;;;;;6.88;3.58;;;;;;;;;;5141875;27;20188;-78
2023/07/08 10:03:59;;;;;;;4.60;3.10;;;;;;;;;;5143654;27;20288;-79
2023/07/08 10:06:27;;;;;;;4.68;3.10;;;;;;;;;;5149944;27;20203;-79
2023/07/08 10:08:56;;;;;;;3.90;3.00;;;;;;;;;;5138329;27;20283;-79
2023/07/08 10:11:29;;;;;;;5.72;2.70;;;;;;;;;;5148540;27;20217;-79
2023/07/08 10:13:59;;;;;;;4.28;2.50;;;;;;;;;;5145502;27;20217;-78
2023/07/08 10:16:27;;;;;;;4.65;2.50;;;;;;;;;;5139398;27;20292;-79
2023/07/08 10:18:54;;;;;;;2.72;2.53;;;;;;;;;;5151121;27;20246;-79
2023/07/08 10:21:27;;;;;;;3.92;2.45;;;;;;;;;;5140868;27;20206;-79
2023/07/08 10:24:02;;;;;;;3.28;2.55;;;;;;;;;;5148421;27;20271;-79
2023/07/08 10:26:30;;;;;;;3.33;2.47;;;;;;;;;;5143037;27;20295;-79
2023/07/08 10:29:02;;;;;;;4.15;2.90;;;;;;;;;;5150127;27;20219;-79
2023/07/08 10:31:33;;;;;;;4.32;2.83;;;;;;;;;;5137158;27;20223;-79
2023/07/08 10:34:18;;;;;;;2.65;2.42;;;;;;;;;;5146850;27;20269;-79
2023/07/08 10:36:50;;;;;;;3.28;2.55;;;;;;;;;;5147953;27;20740;-78
2023/07/08 10:39:35;;;;;;;5.18;2.90;;;;;;;;;;5135743;27;20669;-79
2023/07/08 10:42:09;;;;;;;5.30;3.00;;;;;;;;;;5145692;27;20296;-79
2023/07/08 10:44:39;;;;;;;4.60;2.88;;;;;;;;;;5137718;27;20639;-79
2023/07/08 10:47:11;;;;;;;3.15;2.50;;;;;;;;;;5150354;27;20221;-79
2023/07/08 10:49:55;;;;;;;5.03;2.80;;;;;;;;;;5133325;27;20232;-79
2023/07/08 10:52:30;;;;;;;3.65;2.70;;;;;;;;;;5147883;27;20276;-79
2023/07/08 10:55:04;;;;;;;3.67;2.80;;;;;;;;;;5136441;27;20852;-78
2023/07/08 10:57:41;;;;;;;4.47;2.83;;;;;;;;;;5147009;27;20251;-79
2023/07/08 11:00:17;;;;;;;3.55;2.70;;;;;;;;;;5145956;27;20196;-78
2023/07/08 11:03:07;;;;;;;4.95;2.90;;;;;;;;;;5143558;27;20231;-79
2023/07/08 11:05:39;;;;;;;3.58;2.80;;;;;;;;;;5120555;27;20196;-79
2023/07/08 11:08:10;;;;;;;3.83;2.50;;;;;;;;;;5145328;27;20193;-79
2023/07/08 11:10:40;;;;;;;4.40;3.00;;;;;;;;;;5145921;27;20275;-79
2023/07/08 11:13:12;;;;;;;3.35;2.65;;;;;;;;;;5136496;27;20188;-79
2023/07/08 11:15:44;;;;;;;3.28;2.90;;;;;;;;;;5132495;27;20228;-79
2023/07/08 11:18:14;;;;;;;3.75;2.95;;;;;;;;;;5133295;27;20250;-79
2023/07/08 11:20:44;;;;;;;4.18;2.88;;;;;;;;;;5133684;27;20280;-79
2023/07/08 11:23:17;;;;;;;3.55;3.00;;;;;;;;;;5133190;27;20658;-79
2023/07/08 11:25:45;;;;;;;4.00;2.42;;;;;;;;;;5133387;27;20284;-78
2023/07/08 11:28:16;;;;;;;3.53;2.58;;;;;;;;;;5133414;27;20223;-79
2023/07/08 11:30:44;;;;;;;4.32;2.75;;;;;;;;;;5133069;27;20224;-79
2023/07/08 11:33:12;;;;;;;4.32;2.88;;;;;;;;;;5132924;27;20666;-79
2023/07/08 11:35:41;;;;;;;5.53;3.30;;;;;;;;;;5133162;27;20213;-79
2023/07/08 11:38:12;;;;;;;3.40;3.10;;;;;;;;;;5132836;27;20738;-80
2023/07/08 11:40:51;;;;;;;3.45;2.78;;;;;;;;;;5132674;27;20669;-79
2023/07/08 11:43:21;;;;;;;3.58;2.70;;;;;;;;;;5132886;27;20199;-78
2023/07/08 11:45:50;;;;;;;4.63;2.92;;;;;;;;;;5132552;27;20280;-79
2023/07/08 11:48:18;;;;;;;4.65;3.20;;;;;;;;;;5132841;27;20284;-80
2023/07/08 11:50:47;;;;;;;5.15;3.13;;;;;;;;;;5132961;27;20229;-79
2023/07/08 11:53:15;;;;;;;4.65;3.35;;;;;;;;;;5133713;27;20648;-79
2023/07/08 11:55:45;;;;;;;5.65;3.25;;;;;;;;;;5133789;27;20246;-80
2023/07/08 11:58:21;;;;;;;3.97;3.05;;;;;;;;;;5150253;27;20608;-78
2023/07/08 12:00:54;;;;;;;3.17;2.47;;;;;;;;;;5135253;27;20209;-79
2023/07/08 12:03:22;;;;;;;4.13;2.38;;;;;;;;;;5148259;27;20680;-80
2023/07/08 12:05:50;;;;;;;4.22;2.50;;;;;;;;;;5135722;27;20287;-78
2023/07/08 12:08:20;;;;;;;4.45;2.75;;;;;;;;;;5145201;27;20276;-79
2023/07/08 12:10:49;;;;;;;2.90;2.30;;;;;;;;;;5143659;27;20189;-79
2023/07/08 12:13:17;;;;;;;3.92;3.10;;;;;;;;;;5137613;27;20297;-79
2023/07/08 12:15:45;;;;;;;4.95;2.70;;;;;;;;;;5145355;27;20288;-79
2023/07/08 12:18:16;;;;;;;3.70;2.65;;;;;;;;;;5153290;27;20729;-78
2023/07/08 12:20:46;;;;;;;4.50;2.67;;;;;;;;;;5142142;27;20216;-79
2023/07/08 12:23:15;;;;;;;3.90;2.92;;;;;;;;;;5147333;27;20248;-79
2023/07/08 12:25:43;;;;;;;3.10;2.78;;;;;;;;;;5135583;27;20200;-80
2023/07/08 12:28:12;;;;;;;3.80;2.38;;;;;;;;;;5152489;27;20215;-80
2023/07/08 12:30:39;;;;;;;3.22;2.53;;;;;;;;;;5142472;27;20189;-79
2023/07/08 12:33:10;;;;;;;3.10;2.75;;;;;;;;;;5146106;27;20220;-78
2023/07/08 12:35:39;;;;;;;4.00;2.80;;;;;;;;;;5135272;27;20712;-80
2023/07/08 12:38:12;;;;;;;6.03;3.13;;;;;;;;;;5146193;27;20220;-80
2023/07/08 12:40:39;;;;;;;3.17;2.47;;;;;;;;;;5143438;27;20231;-79
2023/07/08 12:43:11;;;;;;;3.50;2.70;;;;;;;;;;5152336;27;20287;-80
2023/07/08 12:45:38;;;;;;;2.50;2.30;;;;;;;;;;5152983;27;20215;-79
2023/07/08 12:48:06;;;;;;;4.30;2.40;;;;;;;;;;5152720;27;20646;-79
2023/07/08 12:50:33;;;;;;;3.63;2.40;;;;;;;;;;5152913;27;20227;-79
2023/07/08 12:53:04;;;;;;;3.28;2.60;;;;;;;;;;5153059;27;20223;-80
2023/07/08 12:55:31;;;;;;;3.03;2.47;;;;;;;;;;5152844;27;20196;-79
2023/07/08 12:57:58;;;;;;;3.97;2.53;;;;;;;;;;5152399;27;20664;-79
2023/07/08 13:00:29;;;;;;;3.45;2.45;;;;;;;;;;5153297;27;20271;-79
2023/07/08 13:02:58;;;;;;;5.57;2.70;;;;;;;;;;5152765;27;20279;-79
2023/07/08 13:05:27;;;;;;;5.40;2.90;;;;;;;;;;5152357;27;20660;-80
2023/07/08 13:07:54;;;;;;;3.47;2.78;;;;;;;;;;5152738;27;20725;-79
2023/07/08 13:10:25;;;;;;;3.28;2.70;;;;;;;;;;5153335;27;20283;-79
2023/07/08 13:12:54;;;;;;;4.18;2.45;;;;;;;;;;5151906;27;20224;-79
2023/07/08 13:15:23;;;;;;;3.65;2.70;;;;;;;;;;5147651;27;20193;-79
2023/07/08 13:17:50;;;;;;;3.97;2.50;;;;;;;;;;5132659;27;20283;-77
2023/07/08 13:20:18;;;;;;;4.28;2.80;;;;;;;;;;5135571;27;20201;-79
2023/07/08 13:22:48;;;;;;;4.35;2.90;;;;;;;;;;5135443;27;20193;-78
2023/07/08 13:25:17;;;;;;;5.07;2.63;;;;;;;;;;5135224;27;20708;-78
2023/07/08 13:27:55;;;;;;;7.78;2.90;;;;;;;;;;5135041;27;20620;-79
2023/07/08 13:30:25;;;;;;;2.95;2.60;;;;;;;;;;5135677;27;20324;-79
2023/07/08 13:32:53;;;;;;;5.13;3.03;;;;;;;;;;5135579;27;20311;-80
2023/07/08 13:35:28;;;;;;;3.33;2.83;;;;;;;;;;5135600;27;20197;-78
2023/07/08 13:37:56;;;;;;;4.70;3.00;;;;;;;;;;5135501;27;20231;-79
2023/07/08 13:40:23;;;;;;;3.70;2.53;;;;;;;;;;5135481;27;20246;-79
2023/07/08 13:42:53;;;;;;;5.72;2.80;;;;;;;;;;5134953;27;20204;-78
2023/07/08 13:45:24;;;;;;;4.65;2.60;;;;;;;;;;5134935;27;20200;-79
2023/07/08 13:48:01;;;;;;;4.22;2.72;;;;;;;;;;5135170;27;20189;-79
2023/07/08 13:50:31;;;;;;;3.42;2.60;;;;;;;;;;5135009;27;20225;-79
2023/07/08 13:52:58;;;;;;;2.83;2.53;;;;;;;;;;5134837;27;20229;-80
2023/07/08 13:55:26;;;;;;;4.22;2.47;;;;;;;;;;5134536;27;20648;-80
2023/07/08 13:58:00;;;;;;;3.50;2.83;;;;;;;;;;5134888;27;20925;-78
2023/07/08 14:00:27;;;;;;;4.78;2.45;;;;;;;;;;5135122;27;20193;-78
2023/07/08 14:02:55;;;;;;;3.10;2.55;;;;;;;;;;5134829;27;20304;-78
2023/07/08 14:05:22;;;;;;;2.47;2.13;;;;;;;;;;5134834;27;20202;-79
2023/07/08 14:07:50;;;;;;;3.40;2.33;;;;;;;;;;5134903;27;20197;-79
2023/07/08 14:10:17;;;;;;;3.78;2.40;;;;;;;;;;5134438;27;20608;-79
2023/07/08 14:12:44;;;;;;;4.35;2.50;;;;;;;;;;5134225;27;20224;-78
2023/07/08 14:15:13;;;;;;;4.93;2.25;;;;;;;;;;5134390;27;20225;-78
2023/07/08 14:17:41;;;;;;;3.22;2.55;;;;;;;;;;5134689;27;20201;-79
2023/07/08 14:20:12;;;;;;;2.70;2.25;;;;;;;;;;5134521;27;20756;-78
2023/07/08 14:22:39;;;;;;;3.03;2.40;;;;;;;;;;5134497;27;20193;-79
2023/07/08 14:25:08;;;;;;;3.30;2.70;;;;;;;;;;5133929;27;20197;-78
2023/07/08 14:27:36;;;;;;;2.97;2.30;;;;;;;;;;5134226;27;20190;-78
2023/07/08 14:30:03;;;;;;;4.22;2.25;;;;;;;;;;5133284;27;20197;-79
2023/07/08 14:32:33;;;;;;;3.05;2.50;;;;;;;;;;5134430;27;20263;-78
2023/07/08 14:35:00;;;;;;;3.25;2.30;;;;;;;;;;5134163;27;20236;-78
2023/07/08 14:37:28;;;;;;;2.67;2.22;;;;;;;;;;5134076;27;20193;-79
2023/07/08 14:39:55;;;;;;;2.35;2.15;;;;;;;;;;5133796;27;20244;-78
2023/07/08 14:42:22;;;;;;;3.88;2.60;;;;;;;;;;5133889;27;20221;-78
2023/07/08 14:44:50;;;;;;;3.33;2.20;;;;;;;;;;5133928;27;20283;-78
2023/07/08 14:47:19;;;;;;;4.82;2.85;;;;;;;;;;5134016;27;20246;-78
2023/07/08 14:49:47;;;;;;;3.45;2.25;;;;;;;;;;5133415;27;20199;-79
2023/07/08 14:52:15;;;;;;;2.55;2.00;;;;;;;;;;5134117;27;20311;-79